sensor_id;sensor_type;location;lat;lon;timestamp;pressure;altitude;pressure_sealevel;temperature;humidity
11525;BME280;5819;49.648;8.330;2023-05-25T00:00:24;101034.66;;;11.04;80.37
11525;BME280;5819;49.648;8.330;2023-05-25T00:02:54;101036.75;;;10.95;80.69
11525;BME280;5819;49.648;8.330;2023-05-25T00:05:27;101038.34;;;10.99;81.25
11525;BME280;5819;49.648;8.330;2023-05-25T00:07:57;101030.59;;;10.97;80.81
11525;BME280;5819;49.648;8.330;2023-05-25T00:10:28;101036.53;;;11.01;81.14
11525;BME280;5819;49.648;8.330;2023-05-25T00:12:56;101036.47;;;10.76;82.19
11525;BME280;5819;49.648;8.330;2023-05-25T00:15:25;101035.44;;;10.82;82.15
11525;BME280;5819;49.648;8.330;2023-05-25T00:17:56;101038.16;;;11.03;82.18
11525;BME280;5819;49.648;8.330;2023-05-25T00:20:26;101028.22;;;10.90;82.23
11525;BME280;5819;49.648;8.330;2023-05-25T00:22:54;101033.53;;;10.87;82.20
11525;BME280;5819;49.648;8.330;2023-05-25T00:25:22;101033.09;;;10.74;82.85
11525;BME280;5819;49.648;8.330;2023-05-25T00:27:51;101028.81;;;10.71;83.23
11525;BME280;5819;49.648;8.330;2023-05-25T00:30:19;101037.81;;;10.61;83.87
11525;BME280;5819;49.648;8.330;2023-05-25T00:32:47;101038.53;;;10.66;83.35
11525;BME280;5819;49.648;8.330;2023-05-25T00:35:16;101030.66;;;10.68;83.08
11525;BME280;5819;49.648;8.330;2023-05-25T00:37:45;101028.31;;;10.60;83.75
11525;BME280;5819;49.648;8.330;2023-05-25T00:40:16;101030.50;;;10.46;84.87
11525;BME280;5819;49.648;8.330;2023-05-25T00:42:45;101033.38;;;10.37;85.39
11525;BME280;5819;49.648;8.330;2023-05-25T00:45:16;101022.78;;;10.43;84.91
11525;BME280;5819;49.648;8.330;2023-05-25T00:47:50;101036.84;;;10.38;85.21
11525;BME280;5819;49.648;8.330;2023-05-25T00:50:33;101032.59;;;10.35;85.97
11525;BME280;5819;49.648;8.330;2023-05-25T00:53:05;101038.91;;;10.26;86.51
11525;BME280;5819;49.648;8.330;2023-05-25T00:55:44;101038.53;;;10.39;86.08
11525;BME280;5819;49.648;8.330;2023-05-25T00:58:16;101050.00;;;10.31;86.69
11525;BME280;5819;49.648;8.330;2023-05-25T01:00:48;101048.97;;;10.37;86.98
11525;BME280;5819;49.648;8.330;2023-05-25T01:03:18;101047.66;;;10.24;87.50
11525;BME280;5819;49.648;8.330;2023-05-25T01:05:50;101039.19;;;10.45;88.60
11525;BME280;5819;49.648;8.330;2023-05-25T01:08:23;101044.03;;;10.29;88.69
11525;BME280;5819;49.648;8.330;2023-05-25T01:10:52;101041.03;;;10.12;89.78
11525;BME280;5819;49.648;8.330;2023-05-25T01:13:22;101046.28;;;10.11;90.56
11525;BME280;5819;49.648;8.330;2023-05-25T01:15:52;101045.34;;;10.13;90.86
11525;BME280;5819;49.648;8.330;2023-05-25T01:18:21;101040.53;;;10.30;90.03
11525;BME280;5819;49.648;8.330;2023-05-25T01:21:03;101041.59;;;10.23;91.14
11525;BME280;5819;49.648;8.330;2023-05-25T01:23:46;101048.00;;;10.41;91.00
11525;BME280;5819;49.648;8.330;2023-05-25T01:26:20;101046.22;;;10.12;92.26
11525;BME280;5819;49.648;8.330;2023-05-25T01:28:54;101053.28;;;10.07;93.52
11525;BME280;5819;49.648;8.330;2023-05-25T01:31:27;101047.78;;;9.88;95.44
11525;BME280;5819;49.648;8.330;2023-05-25T01:33:57;101047.44;;;10.01;95.65
11525;BME280;5819;49.648;8.330;2023-05-25T01:36:36;101048.44;;;9.95;97.27
11525;BME280;5819;49.648;8.330;2023-05-25T01:39:04;101045.69;;;10.01;97.06
11525;BME280;5819;49.648;8.330;2023-05-25T01:41:35;101046.44;;;10.05;96.69
11525;BME280;5819;49.648;8.330;2023-05-25T01:44:06;101044.06;;;9.97;97.83
11525;BME280;5819;49.648;8.330;2023-05-25T01:46:37;101054.50;;;9.96;99.05
11525;BME280;5819;49.648;8.330;2023-05-25T01:49:15;101053.53;;;10.00;98.87
11525;BME280;5819;49.648;8.330;2023-05-25T01:51:55;101062.38;;;9.94;100.00
11525;BME280;5819;49.648;8.330;2023-05-25T01:54:35;101059.81;;;9.91;100.00
11525;BME280;5819;49.648;8.330;2023-05-25T01:57:06;101061.78;;;9.83;100.00
11525;BME280;5819;49.648;8.330;2023-05-25T01:59:37;101058.09;;;9.92;100.00
11525;BME280;5819;49.648;8.330;2023-05-25T02:02:06;101067.72;;;9.88;100.00
11525;BME280;5819;49.648;8.330;2023-05-25T02:04:34;101070.16;;;9.94;100.00
11525;BME280;5819;49.648;8.330;2023-05-25T02:07:04;101073.00;;;9.85;100.00
11525;BME280;5819;49.648;8.330;2023-05-25T02:09:32;101064.19;;;9.91;100.00
11525;BME280;5819;49.648;8.330;2023-05-25T02:12:00;101063.06;;;9.68;100.00
11525;BME280;5819;49.648;8.330;2023-05-25T02:14:29;101055.97;;;9.75;100.00
11525;BME280;5819;49.648;8.330;2023-05-25T02:16:57;101056.31;;;9.63;100.00
11525;BME280;5819;49.648;8.330;2023-05-25T02:19:28;101053.41;;;9.73;100.00
11525;BME280;5819;49.648;8.330;2023-05-25T02:21:55;101048.25;;;9.72;100.00
11525;BME280;5819;49.648;8.330;2023-05-25T02:24:25;101051.91;;;9.66;100.00
11525;BME280;5819;49.648;8.330;2023-05-25T02:26:54;101052.38;;;9.79;100.00
11525;BME280;5819;49.648;8.330;2023-05-25T02:29:22;101044.53;;;9.82;100.00
11525;BME280;5819;49.648;8.330;2023-05-25T02:31:51;101045.31;;;9.84;100.00
11525;BME280;5819;49.648;8.330;2023-05-25T02:34:19;101052.44;;;9.77;100.00
11525;BME280;5819;49.648;8.330;2023-05-25T02:36:48;101052.88;;;9.62;100.00
11525;BME280;5819;49.648;8.330;2023-05-25T02:39:16;101044.16;;;9.63;100.00
11525;BME280;5819;49.648;8.330;2023-05-25T02:41:46;101049.50;;;9.59;100.00
11525;BME280;5819;49.648;8.330;2023-05-25T02:44:14;101040.00;;;9.58;100.00
11525;BME280;5819;49.648;8.330;2023-05-25T02:46:42;101045.28;;;9.55;100.00
11525;BME280;5819;49.648;8.330;2023-05-25T02:49:11;101042.28;;;9.68;100.00
11525;BME280;5819;49.648;8.330;2023-05-25T02:51:39;101047.81;;;9.56;100.00
11525;BME280;5819;49.648;8.330;2023-05-25T02:54:07;101049.50;;;9.59;100.00
11525;BME280;5819;49.648;8.330;2023-05-25T02:56:35;101049.19;;;9.69;100.00
11525;BME280;5819;49.648;8.330;2023-05-25T02:59:05;101054.84;;;9.53;100.00
11525;BME280;5819;49.648;8.330;2023-05-25T03:01:33;101057.53;;;9.50;100.00
11525;BME280;5819;49.648;8.330;2023-05-25T03:04:01;101061.03;;;9.49;100.00
11525;BME280;5819;49.648;8.330;2023-05-25T03:06:35;101059.59;;;9.37;100.00
11525;BME280;5819;49.648;8.330;2023-05-25T03:09:10;101056.81;;;9.43;100.00
11525;BME280;5819;49.648;8.330;2023-05-25T03:11:38;101056.69;;;9.49;100.00
11525;BME280;5819;49.648;8.330;2023-05-25T03:14:12;101053.25;;;9.47;100.00
11525;BME280;5819;49.648;8.330;2023-05-25T03:16:42;101050.66;;;9.47;100.00
11525;BME280;5819;49.648;8.330;2023-05-25T03:19:10;101057.78;;;9.40;100.00
11525;BME280;5819;49.648;8.330;2023-05-25T03:21:38;101056.66;;;9.51;100.00
11525;BME280;5819;49.648;8.330;2023-05-25T03:24:06;101056.78;;;9.46;100.00
11525;BME280;5819;49.648;8.330;2023-05-25T03:26:35;101060.41;;;9.39;100.00
11525;BME280;5819;49.648;8.330;2023-05-25T03:29:04;101056.06;;;9.39;100.00
11525;BME280;5819;49.648;8.330;2023-05-25T03:31:35;101059.63;;;9.35;100.00
11525;BME280;5819;49.648;8.330;2023-05-25T03:34:03;101057.88;;;9.37;100.00
11525;BME280;5819;49.648;8.330;2023-05-25T03:36:35;101053.09;;;9.53;100.00
11525;BME280;5819;49.648;8.330;2023-05-25T03:39:04;101057.53;;;9.50;100.00
11525;BME280;5819;49.648;8.330;2023-05-25T03:41:36;101058.44;;;9.47;100.00
11525;BME280;5819;49.648;8.330;2023-05-25T03:44:04;101058.44;;;9.47;100.00
11525;BME280;5819;49.648;8.330;2023-05-25T03:46:32;101059.56;;;9.38;100.00
11525;BME280;5819;49.648;8.330;2023-05-25T03:49:02;101060.84;;;9.22;100.00
11525;BME280;5819;49.648;8.330;2023-05-25T03:51:31;101064.25;;;9.24;100.00
11525;BME280;5819;49.648;8.330;2023-05-25T03:53:59;101065.09;;;9.25;100.00
11525;BME280;5819;49.648;8.330;2023-05-25T03:56:27;101060.91;;;9.19;100.00
11525;BME280;5819;49.648;8.330;2023-05-25T03:58:55;101069.56;;;9.20;100.00
11525;BME280;5819;49.648;8.330;2023-05-25T04:01:23;101065.69;;;9.36;100.00
11525;BME280;5819;49.648;8.330;2023-05-25T04:03:52;101073.59;;;9.31;100.00
11525;BME280;5819;49.648;8.330;2023-05-25T04:06:21;101078.72;;;9.34;100.00
11525;BME280;5819;49.648;8.330;2023-05-25T04:08:51;101087.38;;;9.33;100.00
11525;BME280;5819;49.648;8.330;2023-05-25T04:11:19;101086.19;;;9.47;100.00
11525;BME280;5819;49.648;8.330;2023-05-25T04:13:48;101095.53;;;9.54;100.00
11525;BME280;5819;49.648;8.330;2023-05-25T04:16:17;101101.78;;;9.47;100.00
11525;BME280;5819;49.648;8.330;2023-05-25T04:18:45;101097.16;;;9.58;100.00
11525;BME280;5819;49.648;8.330;2023-05-25T04:21:13;101104.81;;;9.62;100.00
11525;BME280;5819;49.648;8.330;2023-05-25T04:23:44;101112.63;;;9.62;100.00
11525;BME280;5819;49.648;8.330;2023-05-25T04:26:12;101105.25;;;9.78;100.00
11525;BME280;5819;49.648;8.330;2023-05-25T04:32:42;101116.94;;;9.62;100.00
11525;BME280;5819;49.648;8.330;2023-05-25T04:35:30;101117.75;;;9.64;100.00
11525;BME280;5819;49.648;8.330;2023-05-25T04:37:58;101119.22;;;9.74;100.00
11525;BME280;5819;49.648;8.330;2023-05-25T04:40:30;101110.19;;;9.87;100.00
11525;BME280;5819;49.648;8.330;2023-05-25T04:42:59;101113.97;;;9.75;100.00
11525;BME280;5819;49.648;8.330;2023-05-25T04:45:27;101115.34;;;9.88;100.00
11525;BME280;5819;49.648;8.330;2023-05-25T04:47:57;101115.38;;;9.87;100.00
11525;BME280;5819;49.648;8.330;2023-05-25T04:50:27;101120.66;;;9.84;100.00
11525;BME280;5819;49.648;8.330;2023-05-25T04:52:56;101126.47;;;9.94;100.00
11525;BME280;5819;49.648;8.330;2023-05-25T04:55:23;101131.47;;;10.01;100.00
11525;BME280;5819;49.648;8.330;2023-05-25T04:57:53;101131.47;;;10.01;100.00
11525;BME280;5819;49.648;8.330;2023-05-25T05:00:22;101126.06;;;10.09;100.00
11525;BME280;5819;49.648;8.330;2023-05-25T05:02:53;101130.09;;;10.20;100.00
11525;BME280;5819;49.648;8.330;2023-05-25T05:05:22;101133.63;;;10.18;100.00
11525;BME280;5819;49.648;8.330;2023-05-25T05:07:51;101130.72;;;10.28;100.00
11525;BME280;5819;49.648;8.330;2023-05-25T05:10:20;101122.81;;;10.31;100.00
11525;BME280;5819;49.648;8.330;2023-05-25T05:12:54;101117.59;;;10.33;100.00
11525;BME280;5819;49.648;8.330;2023-05-25T05:15:23;101118.00;;;10.49;100.00
11525;BME280;5819;49.648;8.330;2023-05-25T05:17:52;101122.34;;;10.48;100.00
11525;BME280;5819;49.648;8.330;2023-05-25T05:20:22;101125.44;;;10.61;100.00
11525;BME280;5819;49.648;8.330;2023-05-25T05:22:50;101118.59;;;10.57;100.00
11525;BME280;5819;49.648;8.330;2023-05-25T05:25:20;101118.97;;;10.74;100.00
11525;BME280;5819;49.648;8.330;2023-05-25T05:27:49;101121.72;;;10.68;100.00
11525;BME280;5819;49.648;8.330;2023-05-25T05:30:24;101123.34;;;10.72;100.00
11525;BME280;5819;49.648;8.330;2023-05-25T05:32:54;101124.88;;;10.79;100.00
11525;BME280;5819;49.648;8.330;2023-05-25T05:35:27;101128.34;;;11.32;100.00
11525;BME280;5819;49.648;8.330;2023-05-25T05:38:04;101120.78;;;11.77;100.00
11525;BME280;5819;49.648;8.330;2023-05-25T05:40:33;101125.34;;;11.44;100.00
11525;BME280;5819;49.648;8.330;2023-05-25T05:43:01;101130.41;;;11.49;100.00
11525;BME280;5819;49.648;8.330;2023-05-25T05:45:30;101136.59;;;11.46;100.00
11525;BME280;5819;49.648;8.330;2023-05-25T05:47:58;101137.88;;;11.59;100.00
11525;BME280;5819;49.648;8.330;2023-05-25T05:50:27;101131.00;;;11.83;99.24
11525;BME280;5819;49.648;8.330;2023-05-25T05:52:55;101136.09;;;11.86;100.00
11525;BME280;5819;49.648;8.330;2023-05-25T05:55:24;101131.25;;;11.76;100.00
11525;BME280;5819;49.648;8.330;2023-05-25T05:57:53;101135.66;;;11.98;98.13
11525;BME280;5819;49.648;8.330;2023-05-25T06:00:21;101137.09;;;11.82;96.49
11525;BME280;5819;49.648;8.330;2023-05-25T06:02:51;101145.13;;;11.76;96.70
11525;BME280;5819;49.648;8.330;2023-05-25T06:05:23;101143.25;;;11.80;97.27
11525;BME280;5819;49.648;8.330;2023-05-25T06:07:53;101141.03;;;11.94;97.28
11525;BME280;5819;49.648;8.330;2023-05-25T06:10:21;101148.47;;;11.80;97.54
11525;BME280;5819;49.648;8.330;2023-05-25T06:12:51;101137.00;;;11.85;94.24
11525;BME280;5819;49.648;8.330;2023-05-25T06:15:20;101131.94;;;12.29;93.60
11525;BME280;5819;49.648;8.330;2023-05-25T06:17:51;101138.91;;;12.28;91.79
11525;BME280;5819;49.648;8.330;2023-05-25T06:20:20;101137.84;;;12.10;92.43
11525;BME280;5819;49.648;8.330;2023-05-25T06:22:48;101143.66;;;12.17;94.30
11525;BME280;5819;49.648;8.330;2023-05-25T06:25:17;101142.59;;;12.23;94.90
11525;BME280;5819;49.648;8.330;2023-05-25T06:27:46;101151.66;;;12.36;93.74
11525;BME280;5819;49.648;8.330;2023-05-25T06:30:15;101145.66;;;12.57;94.37
11525;BME280;5819;49.648;8.330;2023-05-25T06:32:46;101144.88;;;12.55;89.79
11525;BME280;5819;49.648;8.330;2023-05-25T06:35:18;101146.41;;;12.37;90.76
11525;BME280;5819;49.648;8.330;2023-05-25T06:37:52;101143.63;;;12.42;90.55
11525;BME280;5819;49.648;8.330;2023-05-25T06:40:24;101141.88;;;12.42;90.75
11525;BME280;5819;49.648;8.330;2023-05-25T06:42:52;101138.41;;;12.42;91.18
11525;BME280;5819;49.648;8.330;2023-05-25T06:45:39;101140.78;;;12.48;92.25
11525;BME280;5819;49.648;8.330;2023-05-25T06:48:08;101140.31;;;12.83;90.45
11525;BME280;5819;49.648;8.330;2023-05-25T06:50:37;101138.88;;;12.96;89.96
11525;BME280;5819;49.648;8.330;2023-05-25T06:53:05;101142.91;;;13.05;88.33
11525;BME280;5819;49.648;8.330;2023-05-25T06:55:33;101139.44;;;13.04;87.43
11525;BME280;5819;49.648;8.330;2023-05-25T06:58:02;101133.75;;;12.95;87.62
11525;BME280;5819;49.648;8.330;2023-05-25T07:00:30;101137.84;;;13.00;86.64
11525;BME280;5819;49.648;8.330;2023-05-25T07:02:58;101134.34;;;13.01;86.91
11525;BME280;5819;49.648;8.330;2023-05-25T07:05:27;101131.06;;;13.40;84.83
11525;BME280;5819;49.648;8.330;2023-05-25T07:07:58;101135.44;;;13.39;84.78
11525;BME280;5819;49.648;8.330;2023-05-25T07:10:28;101133.91;;;13.34;85.23
11525;BME280;5819;49.648;8.330;2023-05-25T07:12:56;101139.28;;;13.31;83.98
11525;BME280;5819;49.648;8.330;2023-05-25T07:15:24;101132.41;;;13.28;83.24
11525;BME280;5819;49.648;8.330;2023-05-25T07:17:52;101139.50;;;13.46;84.45
11525;BME280;5819;49.648;8.330;2023-05-25T07:20:22;101127.63;;;13.59;83.23
11525;BME280;5819;49.648;8.330;2023-05-25T07:22:51;101130.16;;;13.61;82.42
11525;BME280;5819;49.648;8.330;2023-05-25T07:25:20;101128.72;;;13.74;80.56
11525;BME280;5819;49.648;8.330;2023-05-25T07:27:49;101128.66;;;13.96;79.18
11525;BME280;5819;49.648;8.330;2023-05-25T07:30:21;101120.38;;;14.05;79.14
11525;BME280;5819;49.648;8.330;2023-05-25T07:32:56;101127.66;;;13.98;78.87
11525;BME280;5819;49.648;8.330;2023-05-25T07:35:25;101126.25;;;14.10;79.22
11525;BME280;5819;49.648;8.330;2023-05-25T07:37:57;101124.09;;;14.20;77.98
11525;BME280;5819;49.648;8.330;2023-05-25T07:40:28;101128.53;;;14.18;77.96
11525;BME280;5819;49.648;8.330;2023-05-25T07:42:57;101115.16;;;14.44;76.34
11525;BME280;5819;49.648;8.330;2023-05-25T07:45:24;101118.97;;;14.56;77.55
11525;BME280;5819;49.648;8.330;2023-05-25T07:47:53;101125.47;;;14.66;75.87
11525;BME280;5819;49.648;8.330;2023-05-25T07:50:21;101119.97;;;14.72;75.86
11525;BME280;5819;49.648;8.330;2023-05-25T07:52:49;101118.31;;;14.88;75.08
11525;BME280;5819;49.648;8.330;2023-05-25T07:55:17;101129.91;;;14.82;75.68
11525;BME280;5819;49.648;8.330;2023-05-25T07:57:46;101119.88;;;14.92;75.94
11525;BME280;5819;49.648;8.330;2023-05-25T08:00:15;101126.59;;;15.15;73.60
11525;BME280;5819;49.648;8.330;2023-05-25T08:02:43;101128.38;;;15.14;74.60
11525;BME280;5819;49.648;8.330;2023-05-25T08:05:12;101122.16;;;15.34;74.36
11525;BME280;5819;49.648;8.330;2023-05-25T08:07:41;101120.19;;;15.56;72.47
11525;BME280;5819;49.648;8.330;2023-05-25T08:10:10;101123.69;;;15.38;73.12
11525;BME280;5819;49.648;8.330;2023-05-25T08:12:40;101121.13;;;15.55;71.76
11525;BME280;5819;49.648;8.330;2023-05-25T08:15:17;101119.69;;;15.48;72.68
11525;BME280;5819;49.648;8.330;2023-05-25T08:17:45;101114.00;;;15.74;72.11
11525;BME280;5819;49.648;8.330;2023-05-25T08:20:15;101115.34;;;15.99;71.05
11525;BME280;5819;49.648;8.330;2023-05-25T08:22:43;101109.03;;;15.85;69.91
11525;BME280;5819;49.648;8.330;2023-05-25T08:25:11;101113.28;;;15.88;70.18
11525;BME280;5819;49.648;8.330;2023-05-25T08:27:39;101115.75;;;15.91;69.92
11525;BME280;5819;49.648;8.330;2023-05-25T08:30:09;101116.63;;;16.07;69.50
11525;BME280;5819;49.648;8.330;2023-05-25T08:32:38;101114.00;;;16.07;69.34
11525;BME280;5819;49.648;8.330;2023-05-25T08:35:08;101118.44;;;15.89;67.73
11525;BME280;5819;49.648;8.330;2023-05-25T08:37:35;101120.44;;;16.02;69.50
11525;BME280;5819;49.648;8.330;2023-05-25T08:40:13;101110.84;;;16.33;68.08
11525;BME280;5819;49.648;8.330;2023-05-25T08:42:42;101113.38;;;16.35;68.50
11525;BME280;5819;49.648;8.330;2023-05-25T08:45:11;101109.31;;;16.45;68.45
11525;BME280;5819;49.648;8.330;2023-05-25T08:47:57;101110.13;;;16.63;68.19
11525;BME280;5819;49.648;8.330;2023-05-25T08:50:29;101115.75;;;16.72;67.99
11525;BME280;5819;49.648;8.330;2023-05-25T08:53:01;101112.69;;;16.64;66.92
11525;BME280;5819;49.648;8.330;2023-05-25T08:55:33;101114.75;;;16.89;67.31
11525;BME280;5819;49.648;8.330;2023-05-25T08:58:09;101118.59;;;16.99;67.25
11525;BME280;5819;49.648;8.330;2023-05-25T09:00:49;101112.00;;;16.92;66.75
11525;BME280;5819;49.648;8.330;2023-05-25T09:03:20;101117.41;;;17.05;68.86
11525;BME280;5819;49.648;8.330;2023-05-25T09:05:50;101114.88;;;17.33;67.93
11525;BME280;5819;49.648;8.330;2023-05-25T09:08:19;101099.66;;;17.38;64.98
11525;BME280;5819;49.648;8.330;2023-05-25T09:10:49;101104.13;;;17.52;65.14
11525;BME280;5819;49.648;8.330;2023-05-25T09:13:18;101104.97;;;17.52;64.09
11525;BME280;5819;49.648;8.330;2023-05-25T09:15:49;101102.88;;;17.87;65.35
11525;BME280;5819;49.648;8.330;2023-05-25T09:18:17;101100.69;;;17.65;64.29
11525;BME280;5819;49.648;8.330;2023-05-25T09:20:47;101106.25;;;17.75;64.39
11525;BME280;5819;49.648;8.330;2023-05-25T09:23:16;101098.41;;;17.89;64.46
11525;BME280;5819;49.648;8.330;2023-05-25T09:25:46;101086.69;;;18.36;63.40
11525;BME280;5819;49.648;8.330;2023-05-25T09:28:17;101104.28;;;18.49;62.96
11525;BME280;5819;49.648;8.330;2023-05-25T09:30:53;101096.22;;;18.52;62.23
11525;BME280;5819;49.648;8.330;2023-05-25T09:33:22;101094.16;;;18.84;60.34
11525;BME280;5819;49.648;8.330;2023-05-25T09:35:52;101087.25;;;18.82;60.59
11525;BME280;5819;49.648;8.330;2023-05-25T09:38:21;101084.25;;;18.88;61.17
11525;BME280;5819;49.648;8.330;2023-05-25T09:40:51;101090.78;;;19.22;60.60
11525;BME280;5819;49.648;8.330;2023-05-25T09:43:20;101080.94;;;19.50;59.59
11525;BME280;5819;49.648;8.330;2023-05-25T09:46:07;101080.97;;;19.88;58.15
11525;BME280;5819;49.648;8.330;2023-05-25T09:48:36;101093.22;;;19.77;58.14
11525;BME280;5819;49.648;8.330;2023-05-25T09:51:07;101071.41;;;20.24;56.30
11525;BME280;5819;49.648;8.330;2023-05-25T09:53:35;101074.16;;;20.35;56.08
11525;BME280;5819;49.648;8.330;2023-05-25T09:56:04;101073.09;;;20.74;56.01
11525;BME280;5819;49.648;8.330;2023-05-25T09:58:32;101068.41;;;20.77;54.88
11525;BME280;5819;49.648;8.330;2023-05-25T10:01:01;101060.97;;;21.41;53.01
11525;BME280;5819;49.648;8.330;2023-05-25T10:03:31;101066.13;;;22.00;51.02
11525;BME280;5819;49.648;8.330;2023-05-25T10:06:00;101082.16;;;21.98;49.76
11525;BME280;5819;49.648;8.330;2023-05-25T10:08:31;101078.38;;;21.78;51.32
11525;BME280;5819;49.648;8.330;2023-05-25T10:11:03;101075.59;;;21.91;50.82
11525;BME280;5819;49.648;8.330;2023-05-25T10:13:33;101084.81;;;21.98;50.69
11525;BME280;5819;49.648;8.330;2023-05-25T10:16:03;101080.81;;;22.37;48.38
11525;BME280;5819;49.648;8.330;2023-05-25T10:18:35;101074.06;;;22.33;47.11
11525;BME280;5819;49.648;8.330;2023-05-25T10:21:08;101078.06;;;22.38;46.97
11525;BME280;5819;49.648;8.330;2023-05-25T10:23:42;101074.63;;;22.59;46.75
11525;BME280;5819;49.648;8.330;2023-05-25T10:26:17;101068.66;;;22.34;46.16
11525;BME280;5819;49.648;8.330;2023-05-25T10:28:50;101074.56;;;22.16;47.14
11525;BME280;5819;49.648;8.330;2023-05-25T10:31:18;101068.50;;;22.36;46.14
11525;BME280;5819;49.648;8.330;2023-05-25T10:33:48;101072.69;;;22.72;46.29
11525;BME280;5819;49.648;8.330;2023-05-25T10:36:19;101055.34;;;22.57;46.74
11525;BME280;5819;49.648;8.330;2023-05-25T10:38:50;101055.44;;;23.09;46.13
11525;BME280;5819;49.648;8.330;2023-05-25T10:41:19;101062.03;;;23.15;46.86
11525;BME280;5819;49.648;8.330;2023-05-25T10:43:49;101064.63;;;23.05;47.38
11525;BME280;5819;49.648;8.330;2023-05-25T10:46:20;101067.13;;;22.64;49.02
11525;BME280;5819;49.648;8.330;2023-05-25T10:48:49;101059.75;;;22.90;46.88
11525;BME280;5819;49.648;8.330;2023-05-25T10:51:18;101057.72;;;23.35;47.25
11525;BME280;5819;49.648;8.330;2023-05-25T10:53:59;101052.13;;;23.38;47.44
11525;BME280;5819;49.648;8.330;2023-05-25T10:56:28;101040.69;;;23.58;45.56
11525;BME280;5819;49.648;8.330;2023-05-25T10:58:56;101041.38;;;23.18;46.21
11525;BME280;5819;49.648;8.330;2023-05-25T11:01:26;101027.41;;;23.88;42.81
11525;BME280;5819;49.648;8.330;2023-05-25T11:03:55;101028.69;;;23.63;44.27
11525;BME280;5819;49.648;8.330;2023-05-25T11:09:27;101042.41;;;23.68;44.46
11525;BME280;5819;49.648;8.330;2023-05-25T11:12:00;101029.75;;;23.30;43.93
11525;BME280;5819;49.648;8.330;2023-05-25T11:14:31;101025.91;;;23.44;43.03
11525;BME280;5819;49.648;8.330;2023-05-25T11:17:03;101029.72;;;23.51;43.06
11525;BME280;5819;49.648;8.330;2023-05-25T11:19:44;101029.59;;;23.53;44.62
11525;BME280;5819;49.648;8.330;2023-05-25T11:22:18;101024.22;;;24.04;42.01
11525;BME280;5819;49.648;8.330;2023-05-25T11:24:49;101030.06;;;23.58;42.80
11525;BME280;5819;49.648;8.330;2023-05-25T11:27:21;101035.50;;;23.56;44.23
11525;BME280;5819;49.648;8.330;2023-05-25T11:29:50;101029.69;;;23.62;42.87
11525;BME280;5819;49.648;8.330;2023-05-25T11:32:18;101029.09;;;23.59;45.00
11525;BME280;5819;49.648;8.330;2023-05-25T11:34:47;101023.81;;;23.68;44.66
11525;BME280;5819;49.648;8.330;2023-05-25T11:37:16;101018.50;;;23.99;44.66
11525;BME280;5819;49.648;8.330;2023-05-25T11:39:48;101030.22;;;23.96;45.08
11525;BME280;5819;49.648;8.330;2023-05-25T11:42:19;101025.41;;;24.11;44.14
11525;BME280;5819;49.648;8.330;2023-05-25T11:44:47;101013.19;;;23.99;42.58
11525;BME280;5819;49.648;8.330;2023-05-25T11:47:15;101010.94;;;23.94;42.62
11525;BME280;5819;49.648;8.330;2023-05-25T11:49:49;101014.28;;;23.96;43.19
11525;BME280;5819;49.648;8.330;2023-05-25T11:52:18;101016.00;;;24.07;43.83
11525;BME280;5819;49.648;8.330;2023-05-25T11:54:49;101015.56;;;24.11;43.79
11525;BME280;5819;49.648;8.330;2023-05-25T11:57:20;101012.50;;;24.06;43.83
11525;BME280;5819;49.648;8.330;2023-05-25T11:59:52;101019.31;;;23.90;44.24
11525;BME280;5819;49.648;8.330;2023-05-25T12:02:21;101016.53;;;24.01;45.46
11525;BME280;5819;49.648;8.330;2023-05-25T12:04:53;101018.34;;;23.91;45.95
11525;BME280;5819;49.648;8.330;2023-05-25T12:07:22;101014.13;;;24.18;45.37
11525;BME280;5819;49.648;8.330;2023-05-25T12:10:03;101002.94;;;24.34;44.96
11525;BME280;5819;49.648;8.330;2023-05-25T12:12:41;101012.56;;;24.16;45.57
11525;BME280;5819;49.648;8.330;2023-05-25T12:15:11;101015.16;;;24.06;45.35
11525;BME280;5819;49.648;8.330;2023-05-25T12:17:41;101006.63;;;24.12;44.72
11525;BME280;5819;49.648;8.330;2023-05-25T12:20:10;101008.31;;;24.13;46.82
11525;BME280;5819;49.648;8.330;2023-05-25T12:22:39;100999.72;;;24.31;44.86
11525;BME280;5819;49.648;8.330;2023-05-25T12:25:10;101003.28;;;24.10;45.79
11525;BME280;5819;49.648;8.330;2023-05-25T12:27:39;100995.25;;;24.60;44.11
11525;BME280;5819;49.648;8.330;2023-05-25T12:30:08;100988.16;;;24.89;43.48
11525;BME280;5819;49.648;8.330;2023-05-25T12:32:51;100991.34;;;24.64;42.86
11525;BME280;5819;49.648;8.330;2023-05-25T12:35:20;100991.91;;;24.58;43.98
11525;BME280;5819;49.648;8.330;2023-05-25T12:37:49;100984.78;;;24.78;43.43
11525;BME280;5819;49.648;8.330;2023-05-25T12:40:19;100985.03;;;24.46;44.35
11525;BME280;5819;49.648;8.330;2023-05-25T12:42:56;100986.59;;;24.39;43.76
11525;BME280;5819;49.648;8.330;2023-05-25T12:45:24;100990.09;;;24.49;45.29
11525;BME280;5819;49.648;8.330;2023-05-25T12:47:53;100983.22;;;24.27;43.91
11525;BME280;5819;49.648;8.330;2023-05-25T12:50:21;100973.69;;;24.34;43.05
11525;BME280;5819;49.648;8.330;2023-05-25T12:52:50;100979.69;;;24.36;44.99
11525;BME280;5819;49.648;8.330;2023-05-25T12:55:21;100974.38;;;24.36;44.75
11525;BME280;5819;49.648;8.330;2023-05-25T12:57:52;100965.84;;;24.52;43.94
11525;BME280;5819;49.648;8.330;2023-05-25T13:00:21;100970.63;;;24.67;45.73
11525;BME280;5819;49.648;8.330;2023-05-25T13:02:51;100962.22;;;24.53;44.26
11525;BME280;5819;49.648;8.330;2023-05-25T13:05:21;100961.50;;;24.80;43.67
11525;BME280;5819;49.648;8.330;2023-05-25T13:07:50;100962.91;;;24.64;45.18
11525;BME280;5819;49.648;8.330;2023-05-25T13:10:21;100967.25;;;24.37;44.85
11525;BME280;5819;49.648;8.330;2023-05-25T13:12:50;100958.31;;;24.57;44.22
11525;BME280;5819;49.648;8.330;2023-05-25T13:15:21;100961.13;;;24.55;44.82
11525;BME280;5819;49.648;8.330;2023-05-25T13:17:50;100956.06;;;24.62;43.56
11525;BME280;5819;49.648;8.330;2023-05-25T13:20:20;100956.34;;;24.68;43.96
11525;BME280;5819;49.648;8.330;2023-05-25T13:22:50;100952.53;;;24.81;44.43